Agnew, Nebraska
Current Conditions -  °F | °C
As of 1:54 AM on Saturday 20 Dec 2014 (Local Time) from KLNK Reporting Station
Overcast Overcast  
Wind Chill: -3°   Ceiling: 800
Heat Index:   Visibility: 7mi
Dew Point: -1°   Wind: 8mph
Humidity: 89%   Direction: 150°SSE
Pressure: 30.1"   Gusts: NA
Location:  40.9964°N, 96.8004°W
Report Text: KLNK 200754Z AUTO 15007KT 7SM OVC008 01/M01 A3010 RMK AO2 SLP204 T00061011
Loading
Personal Weather Stations






























Interactive Weather Map New forecast layout! Learn more

10-Day Weather Forecast

Advertisements
Track Severe Weather on mobile